メインページ
METAR-TAF:

METAR-TAF

空港 :

バンギ・ムポコ国際空港

バンギ, 中央アフリカ共和国

緯度: 04-24N, 経度: 018-31E, 海抜: 365m

現時点の気象観測

当レポートは1時間10分前の18:00(UTC)に作成
の風 5kt
気温 22°C
湿度 94%
気圧 1011 hPa
視程: 6000m
高度700ftの千切れ雲あり
高度3300ftの雲はほとんどない, 積乱雲.
激しい雷雨, 小雨

METAR: FEFF 191800Z 18005KT 6000 -TSRA BKN007 FEW033CB 22/21 Q1011 BECMG NSW SCT010 FEW033CB

時間: 20:10 (19:10 UTC)

予報

当レポートは2時間10分前の17:00(UTC)に作成
予報は19日の 18時(UTC)から 20日の 24時(UTC)まで有効
南/南西の風 6kt
視程: 6000m
高度1300ftの千切れ雲あり
高度3300ftの雲はほとんどない, 積乱雲.
激しい雷雨, 雨
20日の 03時(UTC)から 20日の 05時(UTC)まで徐々に
視程: 3000m
間 08から00 UTC一時的に
高度400ftの千切れ雲あり
20日の 0900時(UTC)から
西の風 6kt
視程10km以上
高度2000ftの雲は散在している

TAF: FEFF 191700Z 1918/2024 20006KT 6000 TSRA BKN013 FEW033CB BECMG 2003/2005 3000 BR TEMPO 0800 FG BKN004 FM200900 26006KT 9999 SCT020

4,000以上の空港の気象観測と天気予報(METAR報とTAF報)

利用可能な観測所は地図上に黄色い丸と赤い丸で示す。

丸の上にカーソルを重ねると観測所名を参照できる。

次にクリックすると気象観測と天気予報を参照できる。

マップの切り替え:黒色「×」印の緑ボタンをクリックして拡大、「-」印の緑ボタンをクリックして縮小、緑色の三角印をクリックして隣りの地図に切り替え


METAR-TAF: